sensor_id;sensor_type;location;lat;lon;timestamp;P1;durP1;ratioP1;P2;durP2;ratioP2
1400;SDS011;46518;48.842;8.926;2023-04-25T00:00:26;6.22;;;4.45;;
1400;SDS011;46518;48.842;8.926;2023-04-25T00:02:54;8.23;;;4.63;;
1400;SDS011;46518;48.842;8.926;2023-04-25T00:05:23;4.85;;;4.43;;
1400;SDS011;46518;48.842;8.926;2023-04-25T00:07:52;5.68;;;4.55;;
1400;SDS011;46518;48.842;8.926;2023-04-25T00:10:20;5.20;;;4.43;;
1400;SDS011;46518;48.842;8.926;2023-04-25T00:12:50;5.80;;;4.55;;
1400;SDS011;46518;48.842;8.926;2023-04-25T00:15:18;5.50;;;4.75;;
1400;SDS011;46518;48.842;8.926;2023-04-25T00:17:47;4.63;;;4.20;;
1400;SDS011;46518;48.842;8.926;2023-04-25T00:20:15;6.97;;;4.55;;
1400;SDS011;46518;48.842;8.926;2023-04-25T00:22:43;5.70;;;4.60;;
1400;SDS011;46518;48.842;8.926;2023-04-25T00:25:11;4.90;;;4.40;;
1400;SDS011;46518;48.842;8.926;2023-04-25T00:27:40;5.82;;;5.30;;
1400;SDS011;46518;48.842;8.926;2023-04-25T00:30:10;5.45;;;4.60;;
1400;SDS011;46518;48.842;8.926;2023-04-25T00:32:40;5.63;;;4.75;;
1400;SDS011;46518;48.842;8.926;2023-04-25T00:35:08;5.65;;;4.95;;
1400;SDS011;46518;48.842;8.926;2023-04-25T00:37:37;5.90;;;4.38;;
1400;SDS011;46518;48.842;8.926;2023-04-25T00:40:05;4.65;;;4.25;;
1400;SDS011;46518;48.842;8.926;2023-04-25T00:42:35;5.53;;;5.03;;
1400;SDS011;46518;48.842;8.926;2023-04-25T00:45:05;4.43;;;4.00;;
1400;SDS011;46518;48.842;8.926;2023-04-25T00:47:36;4.38;;;4.00;;
1400;SDS011;46518;48.842;8.926;2023-04-25T00:50:05;4.70;;;4.20;;
1400;SDS011;46518;48.842;8.926;2023-04-25T00:52:34;5.68;;;4.15;;
1400;SDS011;46518;48.842;8.926;2023-04-25T00:55:03;4.78;;;4.32;;
1400;SDS011;46518;48.842;8.926;2023-04-25T00:57:32;3.90;;;3.55;;
1400;SDS011;46518;48.842;8.926;2023-04-25T01:00:01;4.18;;;3.78;;
1400;SDS011;46518;48.842;8.926;2023-04-25T01:02:31;6.00;;;4.50;;
1400;SDS011;46518;48.842;8.926;2023-04-25T01:05:02;5.32;;;4.78;;
1400;SDS011;46518;48.842;8.926;2023-04-25T01:07:31;5.65;;;4.40;;
1400;SDS011;46518;48.842;8.926;2023-04-25T01:09:59;5.10;;;4.60;;
1400;SDS011;46518;48.842;8.926;2023-04-25T01:12:28;6.35;;;4.95;;
1400;SDS011;46518;48.842;8.926;2023-04-25T01:14:57;5.05;;;4.55;;
1400;SDS011;46518;48.842;8.926;2023-04-25T01:17:25;6.50;;;5.30;;
1400;SDS011;46518;48.842;8.926;2023-04-25T01:19:53;5.80;;;4.93;;
1400;SDS011;46518;48.842;8.926;2023-04-25T01:22:23;4.28;;;3.88;;
1400;SDS011;46518;48.842;8.926;2023-04-25T01:24:51;5.15;;;3.88;;
1400;SDS011;46518;48.842;8.926;2023-04-25T01:27:20;4.90;;;4.40;;
1400;SDS011;46518;48.842;8.926;2023-04-25T01:29:50;7.22;;;4.38;;
1400;SDS011;46518;48.842;8.926;2023-04-25T01:32:19;4.60;;;4.18;;
1400;SDS011;46518;48.842;8.926;2023-04-25T01:34:47;4.28;;;3.92;;
1400;SDS011;46518;48.842;8.926;2023-04-25T01:37:16;7.07;;;4.47;;
1400;SDS011;46518;48.842;8.926;2023-04-25T01:39:46;5.55;;;4.40;;
1400;SDS011;46518;48.842;8.926;2023-04-25T01:42:15;4.75;;;4.32;;
1400;SDS011;46518;48.842;8.926;2023-04-25T01:44:43;4.88;;;3.20;;
1400;SDS011;46518;48.842;8.926;2023-04-25T01:47:11;4.10;;;3.55;;
1400;SDS011;46518;48.842;8.926;2023-04-25T01:49:40;5.35;;;3.70;;
1400;SDS011;46518;48.842;8.926;2023-04-25T01:52:08;5.13;;;4.30;;
1400;SDS011;46518;48.842;8.926;2023-04-25T01:54:36;3.92;;;3.40;;
1400;SDS011;46518;48.842;8.926;2023-04-25T01:57:06;4.50;;;4.10;;
1400;SDS011;46518;48.842;8.926;2023-04-25T01:59:35;4.05;;;3.38;;
1400;SDS011;46518;48.842;8.926;2023-04-25T02:02:12;4.82;;;4.40;;
1400;SDS011;46518;48.842;8.926;2023-04-25T02:04:40;4.13;;;3.83;;
1400;SDS011;46518;48.842;8.926;2023-04-25T02:07:08;5.53;;;4.45;;
1400;SDS011;46518;48.842;8.926;2023-04-25T02:09:49;4.18;;;3.75;;
1400;SDS011;46518;48.842;8.926;2023-04-25T02:12:20;6.10;;;4.10;;
1400;SDS011;46518;48.842;8.926;2023-04-25T02:15:05;6.47;;;3.67;;
1400;SDS011;46518;48.842;8.926;2023-04-25T02:18:03;6.18;;;5.00;;
1400;SDS011;46518;48.842;8.926;2023-04-25T02:20:33;4.78;;;4.35;;
1400;SDS011;46518;48.842;8.926;2023-04-25T02:23:01;4.90;;;4.25;;
1400;SDS011;46518;48.842;8.926;2023-04-25T02:25:30;5.75;;;5.05;;
1400;SDS011;46518;48.842;8.926;2023-04-25T02:27:59;7.25;;;4.32;;
1400;SDS011;46518;48.842;8.926;2023-04-25T02:30:28;6.38;;;4.43;;
1400;SDS011;46518;48.842;8.926;2023-04-25T02:32:56;6.55;;;4.80;;
1400;SDS011;46518;48.842;8.926;2023-04-25T02:35:24;5.40;;;4.35;;
1400;SDS011;46518;48.842;8.926;2023-04-25T02:37:53;5.78;;;5.10;;
1400;SDS011;46518;48.842;8.926;2023-04-25T02:40:21;6.85;;;4.70;;
1400;SDS011;46518;48.842;8.926;2023-04-25T02:42:49;5.18;;;4.70;;
1400;SDS011;46518;48.842;8.926;2023-04-25T02:45:19;4.93;;;4.47;;
1400;SDS011;46518;48.842;8.926;2023-04-25T02:47:48;5.70;;;5.05;;
1400;SDS011;46518;48.842;8.926;2023-04-25T02:50:18;4.95;;;4.45;;
1400;SDS011;46518;48.842;8.926;2023-04-25T02:52:46;10.65;;;4.80;;
1400;SDS011;46518;48.842;8.926;2023-04-25T02:55:19;6.03;;;5.32;;
1400;SDS011;46518;48.842;8.926;2023-04-25T02:57:47;5.20;;;4.70;;
1400;SDS011;46518;48.842;8.926;2023-04-25T03:00:27;4.88;;;4.45;;
1400;SDS011;46518;48.842;8.926;2023-04-25T03:02:55;8.07;;;5.63;;
1400;SDS011;46518;48.842;8.926;2023-04-25T03:05:24;6.35;;;5.47;;
1400;SDS011;46518;48.842;8.926;2023-04-25T03:07:52;6.43;;;5.82;;
1400;SDS011;46518;48.842;8.926;2023-04-25T03:10:20;8.25;;;6.05;;
1400;SDS011;46518;48.842;8.926;2023-04-25T03:12:49;6.93;;;5.25;;
1400;SDS011;46518;48.842;8.926;2023-04-25T03:15:17;7.68;;;5.75;;
1400;SDS011;46518;48.842;8.926;2023-04-25T03:17:46;7.13;;;6.00;;
1400;SDS011;46518;48.842;8.926;2023-04-25T03:20:15;8.27;;;6.20;;
1400;SDS011;46518;48.842;8.926;2023-04-25T03:22:43;10.57;;;5.97;;
1400;SDS011;46518;48.842;8.926;2023-04-25T03:25:12;9.32;;;7.45;;
1400;SDS011;46518;48.842;8.926;2023-04-25T03:27:40;7.68;;;6.90;;
1400;SDS011;46518;48.842;8.926;2023-04-25T03:30:08;8.35;;;7.55;;
1400;SDS011;46518;48.842;8.926;2023-04-25T03:32:38;7.65;;;6.65;;
1400;SDS011;46518;48.842;8.926;2023-04-25T03:35:08;6.90;;;6.25;;
1400;SDS011;46518;48.842;8.926;2023-04-25T03:37:36;6.93;;;5.80;;
1400;SDS011;46518;48.842;8.926;2023-04-25T03:40:05;7.60;;;6.85;;
1400;SDS011;46518;48.842;8.926;2023-04-25T03:43:01;10.90;;;7.88;;
1400;SDS011;46518;48.842;8.926;2023-04-25T03:45:30;7.75;;;6.05;;
1400;SDS011;46518;48.842;8.926;2023-04-25T03:47:58;8.55;;;7.65;;
1400;SDS011;46518;48.842;8.926;2023-04-25T03:50:29;10.15;;;8.18;;
1400;SDS011;46518;48.842;8.926;2023-04-25T03:52:57;8.60;;;7.53;;
1400;SDS011;46518;48.842;8.926;2023-04-25T03:55:29;8.23;;;6.95;;
1400;SDS011;46518;48.842;8.926;2023-04-25T03:57:58;9.30;;;8.15;;
1400;SDS011;46518;48.842;8.926;2023-04-25T04:00:26;8.68;;;7.45;;
1400;SDS011;46518;48.842;8.926;2023-04-25T04:02:54;7.65;;;6.95;;
1400;SDS011;46518;48.842;8.926;2023-04-25T04:05:23;7.45;;;6.68;;
1400;SDS011;46518;48.842;8.926;2023-04-25T04:07:55;7.55;;;6.80;;
1400;SDS011;46518;48.842;8.926;2023-04-25T04:10:24;9.75;;;7.75;;
1400;SDS011;46518;48.842;8.926;2023-04-25T04:12:54;6.90;;;5.97;;
1400;SDS011;46518;48.842;8.926;2023-04-25T04:15:22;6.70;;;6.07;;
1400;SDS011;46518;48.842;8.926;2023-04-25T04:17:50;6.30;;;5.65;;
1400;SDS011;46518;48.842;8.926;2023-04-25T04:20:18;6.47;;;5.95;;
1400;SDS011;46518;48.842;8.926;2023-04-25T04:22:47;6.40;;;5.80;;
1400;SDS011;46518;48.842;8.926;2023-04-25T04:25:18;6.43;;;5.82;;
1400;SDS011;46518;48.842;8.926;2023-04-25T04:28:17;7.15;;;6.40;;
1400;SDS011;46518;48.842;8.926;2023-04-25T04:30:53;7.65;;;5.90;;
1400;SDS011;46518;48.842;8.926;2023-04-25T04:33:22;8.10;;;7.28;;
1400;SDS011;46518;48.842;8.926;2023-04-25T04:35:56;7.85;;;6.93;;
1400;SDS011;46518;48.842;8.926;2023-04-25T04:38:24;7.53;;;6.18;;
1400;SDS011;46518;48.842;8.926;2023-04-25T04:40:57;8.10;;;6.60;;
1400;SDS011;46518;48.842;8.926;2023-04-25T04:43:34;10.57;;;7.22;;
1400;SDS011;46518;48.842;8.926;2023-04-25T04:46:22;9.10;;;7.10;;
1400;SDS011;46518;48.842;8.926;2023-04-25T04:49:11;6.97;;;6.30;;
1400;SDS011;46518;48.842;8.926;2023-04-25T04:51:49;8.82;;;7.13;;
1400;SDS011;46518;48.842;8.926;2023-04-25T04:54:36;8.15;;;6.35;;
1400;SDS011;46518;48.842;8.926;2023-04-25T04:57:32;7.72;;;5.95;;
1400;SDS011;46518;48.842;8.926;2023-04-25T05:00:19;7.35;;;6.00;;
1400;SDS011;46518;48.842;8.926;2023-04-25T05:03:06;7.07;;;5.60;;
1400;SDS011;46518;48.842;8.926;2023-04-25T05:05:41;8.23;;;6.55;;
1400;SDS011;46518;48.842;8.926;2023-04-25T05:08:28;7.40;;;5.63;;
1400;SDS011;46518;48.842;8.926;2023-04-25T05:11:23;7.32;;;6.38;;
1400;SDS011;46518;48.842;8.926;2023-04-25T05:14:28;11.85;;;6.82;;
1400;SDS011;46518;48.842;8.926;2023-04-25T05:17:08;7.93;;;6.25;;
1400;SDS011;46518;48.842;8.926;2023-04-25T05:20:00;7.88;;;6.63;;
1400;SDS011;46518;48.842;8.926;2023-04-25T05:22:52;6.68;;;5.80;;
1400;SDS011;46518;48.842;8.926;2023-04-25T05:25:41;10.15;;;7.65;;
1400;SDS011;46518;48.842;8.926;2023-04-25T05:28:20;8.23;;;7.30;;
1400;SDS011;46518;48.842;8.926;2023-04-25T05:31:28;8.00;;;7.20;;
1400;SDS011;46518;48.842;8.926;2023-04-25T05:34:15;9.27;;;7.45;;
1400;SDS011;46518;48.842;8.926;2023-04-25T05:36:56;7.55;;;6.80;;
1400;SDS011;46518;48.842;8.926;2023-04-25T05:39:24;10.70;;;8.30;;
1400;SDS011;46518;48.842;8.926;2023-04-25T05:42:28;7.18;;;6.40;;
1400;SDS011;46518;48.842;8.926;2023-04-25T05:45:14;6.88;;;6.20;;
1400;SDS011;46518;48.842;8.926;2023-04-25T05:47:54;9.40;;;7.43;;
1400;SDS011;46518;48.842;8.926;2023-04-25T05:50:34;7.82;;;6.38;;
1400;SDS011;46518;48.842;8.926;2023-04-25T05:53:13;7.03;;;6.05;;
1400;SDS011;46518;48.842;8.926;2023-04-25T05:55:42;7.30;;;6.45;;
1400;SDS011;46518;48.842;8.926;2023-04-25T05:58:22;6.60;;;5.57;;
1400;SDS011;46518;48.842;8.926;2023-04-25T06:00:51;8.02;;;6.25;;
1400;SDS011;46518;48.842;8.926;2023-04-25T06:03:20;9.57;;;7.85;;
1400;SDS011;46518;48.842;8.926;2023-04-25T06:05:50;7.30;;;6.53;;
1400;SDS011;46518;48.842;8.926;2023-04-25T06:08:19;8.15;;;7.07;;
1400;SDS011;46518;48.842;8.926;2023-04-25T06:10:47;7.40;;;6.65;;
1400;SDS011;46518;48.842;8.926;2023-04-25T06:13:15;7.95;;;6.45;;
1400;SDS011;46518;48.842;8.926;2023-04-25T06:15:44;7.60;;;6.90;;
1400;SDS011;46518;48.842;8.926;2023-04-25T06:18:12;10.55;;;7.88;;
1400;SDS011;46518;48.842;8.926;2023-04-25T06:20:42;10.20;;;7.15;;
1400;SDS011;46518;48.842;8.926;2023-04-25T06:23:10;8.18;;;6.80;;
1400;SDS011;46518;48.842;8.926;2023-04-25T06:25:49;10.13;;;7.00;;
1400;SDS011;46518;48.842;8.926;2023-04-25T06:28:17;6.15;;;5.55;;
1400;SDS011;46518;48.842;8.926;2023-04-25T06:30:48;7.35;;;6.45;;
1400;SDS011;46518;48.842;8.926;2023-04-25T06:33:18;8.35;;;7.18;;
1400;SDS011;46518;48.842;8.926;2023-04-25T06:35:49;5.97;;;5.25;;
1400;SDS011;46518;48.842;8.926;2023-04-25T06:38:22;6.20;;;5.60;;
1400;SDS011;46518;48.842;8.926;2023-04-25T06:40:51;5.70;;;5.25;;
1400;SDS011;46518;48.842;8.926;2023-04-25T06:43:20;6.68;;;6.07;;
1400;SDS011;46518;48.842;8.926;2023-04-25T06:46:00;6.30;;;5.70;;
1400;SDS011;46518;48.842;8.926;2023-04-25T06:48:31;6.78;;;6.07;;
1400;SDS011;46518;48.842;8.926;2023-04-25T06:51:01;12.75;;;7.25;;
1400;SDS011;46518;48.842;8.926;2023-04-25T06:53:30;6.63;;;5.80;;
1400;SDS011;46518;48.842;8.926;2023-04-25T06:56:02;7.43;;;6.72;;
1400;SDS011;46518;48.842;8.926;2023-04-25T06:58:54;9.60;;;6.72;;
1400;SDS011;46518;48.842;8.926;2023-04-25T07:01:48;9.75;;;7.38;;
1400;SDS011;46518;48.842;8.926;2023-04-25T07:04:19;6.90;;;6.20;;
1400;SDS011;46518;48.842;8.926;2023-04-25T07:06:53;7.10;;;6.40;;
1400;SDS011;46518;48.842;8.926;2023-04-25T07:09:29;10.60;;;6.95;;
1400;SDS011;46518;48.842;8.926;2023-04-25T07:12:00;7.97;;;7.18;;
1400;SDS011;46518;48.842;8.926;2023-04-25T07:14:29;10.88;;;7.53;;
1400;SDS011;46518;48.842;8.926;2023-04-25T07:16:59;9.75;;;7.57;;
1400;SDS011;46518;48.842;8.926;2023-04-25T07:19:50;9.63;;;8.23;;
1400;SDS011;46518;48.842;8.926;2023-04-25T07:22:55;7.93;;;7.07;;
1400;SDS011;46518;48.842;8.926;2023-04-25T07:26:00;9.00;;;8.10;;
1400;SDS011;46518;48.842;8.926;2023-04-25T07:29:29;8.65;;;6.80;;
1400;SDS011;46518;48.842;8.926;2023-04-25T07:32:32;8.27;;;7.00;;
1400;SDS011;46518;48.842;8.926;2023-04-25T07:35:12;9.30;;;8.00;;
1400;SDS011;46518;48.842;8.926;2023-04-25T07:38:32;10.45;;;7.28;;
1400;SDS011;46518;48.842;8.926;2023-04-25T07:41:18;9.23;;;8.27;;
1400;SDS011;46518;48.842;8.926;2023-04-25T07:43:57;13.75;;;8.20;;
1400;SDS011;46518;48.842;8.926;2023-04-25T07:47:03;8.52;;;7.40;;
1400;SDS011;46518;48.842;8.926;2023-04-25T07:49:33;8.52;;;6.60;;
1400;SDS011;46518;48.842;8.926;2023-04-25T07:52:02;8.27;;;7.53;;
1400;SDS011;46518;48.842;8.926;2023-04-25T07:54:35;10.25;;;7.82;;
1400;SDS011;46518;48.842;8.926;2023-04-25T07:57:12;8.07;;;6.60;;
1400;SDS011;46518;48.842;8.926;2023-04-25T07:59:41;8.30;;;6.35;;
1400;SDS011;46518;48.842;8.926;2023-04-25T08:02:09;7.97;;;7.18;;
1400;SDS011;46518;48.842;8.926;2023-04-25T08:04:38;9.10;;;6.60;;
1400;SDS011;46518;48.842;8.926;2023-04-25T08:07:09;6.85;;;6.15;;
1400;SDS011;46518;48.842;8.926;2023-04-25T08:09:49;6.80;;;6.18;;
1400;SDS011;46518;48.842;8.926;2023-04-25T08:12:23;6.68;;;5.97;;
1400;SDS011;46518;48.842;8.926;2023-04-25T08:14:52;6.43;;;5.78;;
1400;SDS011;46518;48.842;8.926;2023-04-25T08:17:22;8.55;;;7.32;;
1400;SDS011;46518;48.842;8.926;2023-04-25T08:19:51;8.70;;;6.85;;
1400;SDS011;46518;48.842;8.926;2023-04-25T08:22:26;9.07;;;7.97;;
1400;SDS011;46518;48.842;8.926;2023-04-25T08:25:15;7.35;;;6.63;;
1400;SDS011;46518;48.842;8.926;2023-04-25T08:27:43;7.15;;;6.13;;
1400;SDS011;46518;48.842;8.926;2023-04-25T08:30:12;7.90;;;7.10;;
1400;SDS011;46518;48.842;8.926;2023-04-25T08:32:41;8.52;;;7.40;;
1400;SDS011;46518;48.842;8.926;2023-04-25T08:35:29;9.90;;;7.90;;
1400;SDS011;46518;48.842;8.926;2023-04-25T08:37:57;11.95;;;8.93;;
1400;SDS011;46518;48.842;8.926;2023-04-25T08:40:27;10.43;;;7.55;;
1400;SDS011;46518;48.842;8.926;2023-04-25T08:43:15;10.18;;;8.02;;
1400;SDS011;46518;48.842;8.926;2023-04-25T08:45:47;8.70;;;7.80;;
1400;SDS011;46518;48.842;8.926;2023-04-25T08:48:42;8.80;;;7.30;;
1400;SDS011;46518;48.842;8.926;2023-04-25T08:51:14;11.35;;;9.73;;
1400;SDS011;46518;48.842;8.926;2023-04-25T08:53:50;11.20;;;9.85;;
1400;SDS011;46518;48.842;8.926;2023-04-25T08:56:25;11.80;;;9.82;;
1400;SDS011;46518;48.842;8.926;2023-04-25T08:58:55;11.32;;;9.63;;
1400;SDS011;46518;48.842;8.926;2023-04-25T09:01:24;13.45;;;11.00;;
1400;SDS011;46518;48.842;8.926;2023-04-25T09:03:53;10.05;;;8.65;;
1400;SDS011;46518;48.842;8.926;2023-04-25T09:06:21;14.57;;;10.90;;
1400;SDS011;46518;48.842;8.926;2023-04-25T09:08:52;11.60;;;9.88;;
1400;SDS011;46518;48.842;8.926;2023-04-25T09:11:20;13.30;;;9.55;;
1400;SDS011;46518;48.842;8.926;2023-04-25T09:13:52;9.80;;;8.50;;
1400;SDS011;46518;48.842;8.926;2023-04-25T09:16:57;9.07;;;7.43;;
1400;SDS011;46518;48.842;8.926;2023-04-25T09:19:50;9.10;;;7.82;;
1400;SDS011;46518;48.842;8.926;2023-04-25T09:22:26;9.20;;;7.35;;
1400;SDS011;46518;48.842;8.926;2023-04-25T09:24:54;7.18;;;6.45;;
1400;SDS011;46518;48.842;8.926;2023-04-25T09:27:26;7.15;;;5.32;;
1400;SDS011;46518;48.842;8.926;2023-04-25T09:30:03;5.57;;;5.05;;
1400;SDS011;46518;48.842;8.926;2023-04-25T09:32:52;7.35;;;5.38;;
1400;SDS011;46518;48.842;8.926;2023-04-25T09:35:25;5.20;;;4.70;;
1400;SDS011;46518;48.842;8.926;2023-04-25T09:37:56;4.88;;;4.18;;
1400;SDS011;46518;48.842;8.926;2023-04-25T09:40:45;3.60;;;3.30;;
1400;SDS011;46518;48.842;8.926;2023-04-25T09:43:24;3.75;;;3.45;;
1400;SDS011;46518;48.842;8.926;2023-04-25T09:45:55;4.18;;;3.85;;
1400;SDS011;46518;48.842;8.926;2023-04-25T09:48:27;3.67;;;3.38;;
1400;SDS011;46518;48.842;8.926;2023-04-25T09:51:07;4.30;;;3.47;;
1400;SDS011;46518;48.842;8.926;2023-04-25T09:53:38;3.85;;;3.45;;
1400;SDS011;46518;48.842;8.926;2023-04-25T09:56:16;3.58;;;3.28;;
1400;SDS011;46518;48.842;8.926;2023-04-25T09:58:44;3.35;;;3.05;;
1400;SDS011;46518;48.842;8.926;2023-04-25T10:01:16;3.00;;;2.80;;
1400;SDS011;46518;48.842;8.926;2023-04-25T10:03:58;2.70;;;2.50;;
1400;SDS011;46518;48.842;8.926;2023-04-25T10:06:39;2.50;;;2.30;;
1400;SDS011;46518;48.842;8.926;2023-04-25T10:09:10;2.55;;;2.35;;
1400;SDS011;46518;48.842;8.926;2023-04-25T10:11:40;3.35;;;3.05;;
1400;SDS011;46518;48.842;8.926;2023-04-25T10:14:09;2.65;;;2.45;;
1400;SDS011;46518;48.842;8.926;2023-04-25T10:16:39;3.58;;;3.00;;
1400;SDS011;46518;48.842;8.926;2023-04-25T10:19:09;2.33;;;2.20;;
1400;SDS011;46518;48.842;8.926;2023-04-25T10:21:37;4.43;;;4.03;;
1400;SDS011;46518;48.842;8.926;2023-04-25T10:24:17;6.00;;;4.78;;
1400;SDS011;46518;48.842;8.926;2023-04-25T10:26:46;6.45;;;5.57;;
1400;SDS011;46518;48.842;8.926;2023-04-25T10:29:21;8.70;;;6.30;;
1400;SDS011;46518;48.842;8.926;2023-04-25T10:31:51;12.80;;;7.15;;
1400;SDS011;46518;48.842;8.926;2023-04-25T10:34:23;7.55;;;6.50;;
1400;SDS011;46518;48.842;8.926;2023-04-25T10:36:52;9.68;;;7.25;;
1400;SDS011;46518;48.842;8.926;2023-04-25T10:39:21;11.02;;;8.23;;
1400;SDS011;46518;48.842;8.926;2023-04-25T10:41:55;7.40;;;6.50;;
1400;SDS011;46518;48.842;8.926;2023-04-25T10:44:27;8.93;;;7.07;;
1400;SDS011;46518;48.842;8.926;2023-04-25T10:46:58;8.73;;;7.25;;
1400;SDS011;46518;48.842;8.926;2023-04-25T10:49:28;5.32;;;4.82;;
1400;SDS011;46518;48.842;8.926;2023-04-25T10:52:14;5.57;;;4.75;;
1400;SDS011;46518;48.842;8.926;2023-04-25T10:54:48;5.72;;;4.35;;
1400;SDS011;46518;48.842;8.926;2023-04-25T10:57:32;5.25;;;4.45;;
1400;SDS011;46518;48.842;8.926;2023-04-25T11:00:05;5.28;;;4.80;;
1400;SDS011;46518;48.842;8.926;2023-04-25T11:02:39;8.15;;;5.95;;
1400;SDS011;46518;48.842;8.926;2023-04-25T11:05:16;4.72;;;3.70;;
1400;SDS011;46518;48.842;8.926;2023-04-25T11:07:49;3.65;;;3.33;;
1400;SDS011;46518;48.842;8.926;2023-04-25T11:10:30;3.85;;;3.45;;
1400;SDS011;46518;48.842;8.926;2023-04-25T11:12:59;3.95;;;3.60;;
1400;SDS011;46518;48.842;8.926;2023-04-25T11:15:27;3.17;;;2.95;;
1400;SDS011;46518;48.842;8.926;2023-04-25T11:17:57;3.05;;;2.75;;
1400;SDS011;46518;48.842;8.926;2023-04-25T11:20:26;3.10;;;2.80;;
1400;SDS011;46518;48.842;8.926;2023-04-25T11:22:57;2.97;;;2.78;;
1400;SDS011;46518;48.842;8.926;2023-04-25T11:25:26;2.25;;;2.05;;
1400;SDS011;46518;48.842;8.926;2023-04-25T11:27:55;3.42;;;2.40;;
1400;SDS011;46518;48.842;8.926;2023-04-25T11:30:25;6.20;;;4.05;;
1400;SDS011;46518;48.842;8.926;2023-04-25T11:32:55;4.05;;;3.55;;
1400;SDS011;46518;48.842;8.926;2023-04-25T11:35:25;5.10;;;4.07;;
1400;SDS011;46518;48.842;8.926;2023-04-25T11:37:53;6.13;;;4.88;;
1400;SDS011;46518;48.842;8.926;2023-04-25T11:40:21;6.95;;;5.43;;
1400;SDS011;46518;48.842;8.926;2023-04-25T11:42:49;5.82;;;5.00;;
1400;SDS011;46518;48.842;8.926;2023-04-25T11:45:20;10.73;;;6.85;;
1400;SDS011;46518;48.842;8.926;2023-04-25T11:47:50;12.48;;;7.00;;
1400;SDS011;46518;48.842;8.926;2023-04-25T11:50:20;12.35;;;7.57;;
1400;SDS011;46518;48.842;8.926;2023-04-25T11:52:50;14.38;;;10.10;;
1400;SDS011;46518;48.842;8.926;2023-04-25T11:55:19;15.27;;;9.77;;
1400;SDS011;46518;48.842;8.926;2023-04-25T11:57:48;16.33;;;10.30;;
1400;SDS011;46518;48.842;8.926;2023-04-25T12:00:19;18.15;;;10.40;;
1400;SDS011;46518;48.842;8.926;2023-04-25T12:02:58;12.88;;;9.05;;
1400;SDS011;46518;48.842;8.926;2023-04-25T12:14:23;10.25;;;7.95;;
1400;SDS011;46518;48.842;8.926;2023-04-25T12:16:55;9.70;;;7.60;;
1400;SDS011;46518;48.842;8.926;2023-04-25T12:19:25;11.20;;;8.60;;
1400;SDS011;46518;48.842;8.926;2023-04-25T12:21:54;10.82;;;7.78;;
1400;SDS011;46518;48.842;8.926;2023-04-25T12:24:25;10.75;;;9.13;;
1400;SDS011;46518;48.842;8.926;2023-04-25T12:27:00;12.90;;;10.88;;
1400;SDS011;46518;48.842;8.926;2023-04-25T12:29:29;12.32;;;8.73;;
1400;SDS011;46518;48.842;8.926;2023-04-25T12:32:13;15.57;;;9.90;;
1400;SDS011;46518;48.842;8.926;2023-04-25T12:34:42;11.38;;;9.10;;
1400;SDS011;46518;48.842;8.926;2023-04-25T12:37:11;12.75;;;9.77;;
1400;SDS011;46518;48.842;8.926;2023-04-25T12:39:40;11.48;;;9.70;;
1400;SDS011;46518;48.842;8.926;2023-04-25T12:42:09;11.45;;;9.20;;
1400;SDS011;46518;48.842;8.926;2023-04-25T12:44:39;13.55;;;9.45;;
1400;SDS011;46518;48.842;8.926;2023-04-25T12:47:08;13.85;;;9.60;;
1400;SDS011;46518;48.842;8.926;2023-04-25T12:49:36;17.33;;;8.95;;
1400;SDS011;46518;48.842;8.926;2023-04-25T12:52:04;15.88;;;9.73;;
1400;SDS011;46518;48.842;8.926;2023-04-25T12:54:33;9.63;;;8.60;;
1400;SDS011;46518;48.842;8.926;2023-04-25T12:57:01;12.60;;;10.40;;
1400;SDS011;46518;48.842;8.926;2023-04-25T12:59:31;11.60;;;8.20;;
1400;SDS011;46518;48.842;8.926;2023-04-25T13:01:59;12.20;;;10.07;;
1400;SDS011;46518;48.842;8.926;2023-04-25T13:04:28;13.23;;;8.05;;
1400;SDS011;46518;48.842;8.926;2023-04-25T13:06:57;14.38;;;10.50;;
1400;SDS011;46518;48.842;8.926;2023-04-25T13:09:25;17.50;;;11.25;;
1400;SDS011;46518;48.842;8.926;2023-04-25T13:11:53;12.13;;;10.80;;
1400;SDS011;46518;48.842;8.926;2023-04-25T13:14:24;11.70;;;9.10;;
1400;SDS011;46518;48.842;8.926;2023-04-25T13:16:54;16.30;;;10.75;;
1400;SDS011;46518;48.842;8.926;2023-04-25T13:19:22;9.63;;;8.63;;
1400;SDS011;46518;48.842;8.926;2023-04-25T13:21:51;11.40;;;9.60;;
1400;SDS011;46518;48.842;8.926;2023-04-25T13:24:19;10.65;;;8.57;;
1400;SDS011;46518;48.842;8.926;2023-04-25T13:26:47;10.93;;;9.18;;
1400;SDS011;46518;48.842;8.926;2023-04-25T13:29:15;9.77;;;8.07;;
1400;SDS011;46518;48.842;8.926;2023-04-25T13:31:43;10.07;;;8.30;;
1400;SDS011;46518;48.842;8.926;2023-04-25T13:34:13;10.43;;;7.95;;
1400;SDS011;46518;48.842;8.926;2023-04-25T13:36:41;14.73;;;10.38;;
1400;SDS011;46518;48.842;8.926;2023-04-25T13:39:09;10.75;;;8.38;;
1400;SDS011;46518;48.842;8.926;2023-04-25T13:41:39;13.80;;;9.45;;
1400;SDS011;46518;48.842;8.926;2023-04-25T13:44:07;10.15;;;8.20;;
1400;SDS011;46518;48.842;8.926;2023-04-25T13:46:35;12.85;;;8.57;;
1400;SDS011;46518;48.842;8.926;2023-04-25T13:49:14;12.35;;;9.63;;
1400;SDS011;46518;48.842;8.926;2023-04-25T13:51:42;10.80;;;8.20;;
1400;SDS011;46518;48.842;8.926;2023-04-25T13:54:10;10.00;;;8.93;;
1400;SDS011;46518;48.842;8.926;2023-04-25T13:56:38;13.18;;;8.82;;
1400;SDS011;46518;48.842;8.926;2023-04-25T13:59:09;11.30;;;8.43;;
1400;SDS011;46518;48.842;8.926;2023-04-25T14:01:37;11.13;;;7.75;;
1400;SDS011;46518;48.842;8.926;2023-04-25T14:04:06;13.30;;;7.95;;
1400;SDS011;46518;48.842;8.926;2023-04-25T14:06:36;10.15;;;8.38;;
1400;SDS011;46518;48.842;8.926;2023-04-25T14:09:04;15.27;;;7.47;;
1400;SDS011;46518;48.842;8.926;2023-04-25T14:11:33;9.90;;;7.85;;
1400;SDS011;46518;48.842;8.926;2023-04-25T14:14:01;9.32;;;7.53;;
1400;SDS011;46518;48.842;8.926;2023-04-25T14:16:30;9.18;;;7.60;;
1400;SDS011;46518;48.842;8.926;2023-04-25T14:18:58;7.47;;;6.18;;
1400;SDS011;46518;48.842;8.926;2023-04-25T14:21:26;9.23;;;7.45;;
1400;SDS011;46518;48.842;8.926;2023-04-25T14:23:56;6.88;;;6.05;;
1400;SDS011;46518;48.842;8.926;2023-04-25T14:26:24;8.50;;;6.80;;
1400;SDS011;46518;48.842;8.926;2023-04-25T14:28:52;6.25;;;5.65;;
1400;SDS011;46518;48.842;8.926;2023-04-25T14:31:20;6.93;;;5.90;;
1400;SDS011;46518;48.842;8.926;2023-04-25T14:33:49;8.43;;;6.28;;
1400;SDS011;46518;48.842;8.926;2023-04-25T14:36:17;7.40;;;6.70;;
1400;SDS011;46518;48.842;8.926;2023-04-25T14:38:46;7.25;;;6.25;;
1400;SDS011;46518;48.842;8.926;2023-04-25T14:41:15;8.30;;;7.20;;
1400;SDS011;46518;48.842;8.926;2023-04-25T14:43:44;11.40;;;8.77;;
1400;SDS011;46518;48.842;8.926;2023-04-25T14:46:12;8.43;;;7.53;;
1400;SDS011;46518;48.842;8.926;2023-04-25T14:48:40;9.18;;;8.13;;
1400;SDS011;46518;48.842;8.926;2023-04-25T14:51:09;9.05;;;7.43;;
1400;SDS011;46518;48.842;8.926;2023-04-25T14:53:37;10.45;;;6.47;;
1400;SDS011;46518;48.842;8.926;2023-04-25T14:56:06;8.88;;;7.38;;
1400;SDS011;46518;48.842;8.926;2023-04-25T14:58:36;8.73;;;6.85;;
1400;SDS011;46518;48.842;8.926;2023-04-25T15:01:05;8.98;;;6.68;;
1400;SDS011;46518;48.842;8.926;2023-04-25T15:03:34;9.15;;;8.15;;
1400;SDS011;46518;48.842;8.926;2023-04-25T15:06:03;8.55;;;6.88;;
1400;SDS011;46518;48.842;8.926;2023-04-25T15:08:33;10.88;;;8.15;;
1400;SDS011;46518;48.842;8.926;2023-04-25T15:11:02;10.55;;;6.75;;
1400;SDS011;46518;48.842;8.926;2023-04-25T15:13:31;9.98;;;6.80;;
1400;SDS011;46518;48.842;8.926;2023-04-25T15:16:02;13.55;;;7.18;;
1400;SDS011;46518;48.842;8.926;2023-04-25T15:18:31;7.97;;;6.18;;
1400;SDS011;46518;48.842;8.926;2023-04-25T15:20:59;7.85;;;6.75;;
1400;SDS011;46518;48.842;8.926;2023-04-25T15:23:30;8.88;;;6.97;;
1400;SDS011;46518;48.842;8.926;2023-04-25T15:26:15;10.27;;;7.53;;
1400;SDS011;46518;48.842;8.926;2023-04-25T15:28:44;7.72;;;6.93;;
1400;SDS011;46518;48.842;8.926;2023-04-25T15:31:13;7.88;;;7.07;;
1400;SDS011;46518;48.842;8.926;2023-04-25T15:33:41;7.22;;;6.30;;
1400;SDS011;46518;48.842;8.926;2023-04-25T15:36:10;7.32;;;6.63;;
1400;SDS011;46518;48.842;8.926;2023-04-25T15:38:38;7.95;;;6.30;;
1400;SDS011;46518;48.842;8.926;2023-04-25T15:41:06;12.05;;;7.40;;